sensor_id;sensor_type;location;lat;lon;timestamp;P1;durP1;ratioP1;P2;durP2;ratioP2
52072;SDS011;38074;51.232;6.826;2023-04-25T00:04:44;1.15;;;0.68;;
52072;SDS011;38074;51.232;6.826;2023-04-25T00:12:01;1.07;;;0.30;;
52072;SDS011;38074;51.232;6.826;2023-04-25T00:19:16;0.80;;;0.33;;
52072;SDS011;38074;51.232;6.826;2023-04-25T00:26:33;0.60;;;0.30;;
52072;SDS011;38074;51.232;6.826;2023-04-25T00:33:49;0.47;;;0.20;;
52072;SDS011;38074;51.232;6.826;2023-04-25T00:41:05;0.85;;;0.32;;
52072;SDS011;38074;51.232;6.826;2023-04-25T00:48:22;0.75;;;0.30;;
52072;SDS011;38074;51.232;6.826;2023-04-25T00:55:38;0.30;;;0.20;;
52072;SDS011;38074;51.232;6.826;2023-04-25T01:02:53;0.45;;;0.30;;
52072;SDS011;38074;51.232;6.826;2023-04-25T01:10:09;0.80;;;0.27;;
52072;SDS011;38074;51.232;6.826;2023-04-25T01:17:24;0.63;;;0.37;;
52072;SDS011;38074;51.232;6.826;2023-04-25T01:24:40;0.73;;;0.30;;
52072;SDS011;38074;51.232;6.826;2023-04-25T01:31:56;0.40;;;0.20;;
52072;SDS011;38074;51.232;6.826;2023-04-25T01:46:28;0.67;;;0.30;;
52072;SDS011;38074;51.232;6.826;2023-04-25T01:53:44;0.52;;;0.20;;
52072;SDS011;38074;51.232;6.826;2023-04-25T02:01:00;0.60;;;0.20;;
52072;SDS011;38074;51.232;6.826;2023-04-25T02:08:16;0.50;;;0.20;;
52072;SDS011;38074;51.232;6.826;2023-04-25T02:15:32;0.55;;;0.32;;
52072;SDS011;38074;51.232;6.826;2023-04-25T02:22:48;0.23;;;0.20;;
52072;SDS011;38074;51.232;6.826;2023-04-25T02:30:04;0.60;;;0.40;;
52072;SDS011;38074;51.232;6.826;2023-04-25T02:44:36;0.50;;;0.30;;
52072;SDS011;38074;51.232;6.826;2023-04-25T02:51:52;0.40;;;0.20;;
52072;SDS011;38074;51.232;6.826;2023-04-25T02:59:07;0.67;;;0.20;;
52072;SDS011;38074;51.232;6.826;2023-04-25T03:06:23;0.20;;;0.20;;
52072;SDS011;38074;51.232;6.826;2023-04-25T03:13:38;0.93;;;0.37;;
52072;SDS011;38074;51.232;6.826;2023-04-25T03:20:54;0.40;;;0.20;;
52072;SDS011;38074;51.232;6.826;2023-04-25T03:28:09;0.90;;;0.30;;
52072;SDS011;38074;51.232;6.826;2023-04-25T03:35:25;0.27;;;0.10;;
52072;SDS011;38074;51.232;6.826;2023-04-25T03:42:40;0.30;;;0.20;;
52072;SDS011;38074;51.232;6.826;2023-04-25T03:49:56;0.47;;;0.27;;
52072;SDS011;38074;51.232;6.826;2023-04-25T03:57:11;0.97;;;0.30;;
52072;SDS011;38074;51.232;6.826;2023-04-25T04:04:27;0.50;;;0.30;;
52072;SDS011;38074;51.232;6.826;2023-04-25T04:11:42;0.20;;;0.10;;
52072;SDS011;38074;51.232;6.826;2023-04-25T04:18:58;0.30;;;0.10;;
52072;SDS011;38074;51.232;6.826;2023-04-25T04:26:14;0.30;;;0.20;;
52072;SDS011;38074;51.232;6.826;2023-04-25T04:33:31;0.98;;;0.40;;
52072;SDS011;38074;51.232;6.826;2023-04-25T04:40:46;0.27;;;0.17;;
52072;SDS011;38074;51.232;6.826;2023-04-25T04:48:02;0.50;;;0.28;;
52072;SDS011;38074;51.232;6.826;2023-04-25T04:55:20;0.45;;;0.20;;
52072;SDS011;38074;51.232;6.826;2023-04-25T05:02:36;0.53;;;0.20;;
52072;SDS011;38074;51.232;6.826;2023-04-25T05:09:55;0.60;;;0.20;;
52072;SDS011;38074;51.232;6.826;2023-04-25T05:17:10;0.10;;;0.10;;
52072;SDS011;38074;51.232;6.826;2023-04-25T05:24:26;0.40;;;0.10;;
52072;SDS011;38074;51.232;6.826;2023-04-25T05:31:41;0.50;;;0.20;;
52072;SDS011;38074;51.232;6.826;2023-04-25T05:38:57;1.33;;;0.50;;
52072;SDS011;38074;51.232;6.826;2023-04-25T05:46:12;3.90;;;0.97;;
52072;SDS011;38074;51.232;6.826;2023-04-25T05:53:29;7.90;;;1.67;;
52072;SDS011;38074;51.232;6.826;2023-04-25T06:00:44;17.47;;;3.77;;
52072;SDS011;38074;51.232;6.826;2023-04-25T06:08:01;11.40;;;3.08;;
52072;SDS011;38074;51.232;6.826;2023-04-25T06:15:16;15.17;;;3.50;;
52072;SDS011;38074;51.232;6.826;2023-04-25T06:22:32;15.13;;;3.10;;
52072;SDS011;38074;51.232;6.826;2023-04-25T06:29:47;11.83;;;2.83;;
52072;SDS011;38074;51.232;6.826;2023-04-25T06:37:03;11.60;;;2.17;;
52072;SDS011;38074;51.232;6.826;2023-04-25T06:44:18;10.53;;;2.77;;
52072;SDS011;38074;51.232;6.826;2023-04-25T06:51:34;11.50;;;3.00;;
52072;SDS011;38074;51.232;6.826;2023-04-25T06:58:50;9.48;;;2.55;;
52072;SDS011;38074;51.232;6.826;2023-04-25T07:06:05;9.73;;;2.27;;
52072;SDS011;38074;51.232;6.826;2023-04-25T07:13:21;10.13;;;2.53;;
52072;SDS011;38074;51.232;6.826;2023-04-25T07:20:36;12.33;;;3.13;;
52072;SDS011;38074;51.232;6.826;2023-04-25T07:27:52;9.80;;;2.10;;
52072;SDS011;38074;51.232;6.826;2023-04-25T07:35:07;11.57;;;2.90;;
52072;SDS011;38074;51.232;6.826;2023-04-25T07:42:23;12.27;;;2.30;;
52072;SDS011;38074;51.232;6.826;2023-04-25T07:49:39;10.13;;;2.20;;
52072;SDS011;38074;51.232;6.826;2023-04-25T07:56:55;11.15;;;2.60;;
52072;SDS011;38074;51.232;6.826;2023-04-25T08:04:10;7.43;;;1.90;;
52072;SDS011;38074;51.232;6.826;2023-04-25T08:11:26;21.07;;;3.43;;
52072;SDS011;38074;51.232;6.826;2023-04-25T08:18:41;12.93;;;2.73;;
52072;SDS011;38074;51.232;6.826;2023-04-25T08:25:57;14.70;;;2.37;;
52072;SDS011;38074;51.232;6.826;2023-04-25T08:33:13;21.37;;;2.80;;
52072;SDS011;38074;51.232;6.826;2023-04-25T08:40:28;15.07;;;3.03;;
52072;SDS011;38074;51.232;6.826;2023-04-25T08:47:45;15.87;;;2.50;;
52072;SDS011;38074;51.232;6.826;2023-04-25T08:55:03;8.77;;;2.22;;
52072;SDS011;38074;51.232;6.826;2023-04-25T09:02:21;17.92;;;3.33;;
52072;SDS011;38074;51.232;6.826;2023-04-25T09:09:38;13.10;;;2.83;;
52072;SDS011;38074;51.232;6.826;2023-04-25T09:24:16;10.38;;;2.17;;
52072;SDS011;38074;51.232;6.826;2023-04-25T09:31:44;7.65;;;2.30;;
52072;SDS011;38074;51.232;6.826;2023-04-25T09:39:00;8.07;;;2.00;;
52072;SDS011;38074;51.232;6.826;2023-04-25T09:46:16;12.32;;;1.65;;
52072;SDS011;38074;51.232;6.826;2023-04-25T09:53:34;8.05;;;1.95;;
52072;SDS011;38074;51.232;6.826;2023-04-25T10:00:51;6.35;;;1.33;;
52072;SDS011;38074;51.232;6.826;2023-04-25T10:08:07;6.38;;;1.40;;
52072;SDS011;38074;51.232;6.826;2023-04-25T10:15:23;4.07;;;0.93;;
52072;SDS011;38074;51.232;6.826;2023-04-25T10:22:41;6.55;;;1.38;;
52072;SDS011;38074;51.232;6.826;2023-04-25T10:37:25;5.28;;;1.48;;
52072;SDS011;38074;51.232;6.826;2023-04-25T10:44:40;14.23;;;2.10;;
52072;SDS011;38074;51.232;6.826;2023-04-25T10:52:28;5.93;;;1.50;;
52072;SDS011;38074;51.232;6.826;2023-04-25T10:59:44;8.52;;;1.20;;
52072;SDS011;38074;51.232;6.826;2023-04-25T11:14:24;7.13;;;1.30;;
52072;SDS011;38074;51.232;6.826;2023-04-25T11:21:40;3.58;;;1.27;;
52072;SDS011;38074;51.232;6.826;2023-04-25T11:28:59;10.00;;;1.60;;
52072;SDS011;38074;51.232;6.826;2023-04-25T11:36:17;7.38;;;1.42;;
52072;SDS011;38074;51.232;6.826;2023-04-25T11:43:33;6.97;;;1.45;;
52072;SDS011;38074;51.232;6.826;2023-04-25T11:50:49;6.67;;;1.10;;
52072;SDS011;38074;51.232;6.826;2023-04-25T11:58:05;9.30;;;1.10;;
52072;SDS011;38074;51.232;6.826;2023-04-25T12:05:23;6.07;;;1.35;;
52072;SDS011;38074;51.232;6.826;2023-04-25T12:12:41;8.18;;;1.25;;
52072;SDS011;38074;51.232;6.826;2023-04-25T12:19:58;6.22;;;0.95;;
52072;SDS011;38074;51.232;6.826;2023-04-25T12:27:14;2.63;;;0.80;;
52072;SDS011;38074;51.232;6.826;2023-04-25T12:34:34;3.85;;;0.90;;
52072;SDS011;38074;51.232;6.826;2023-04-25T12:41:51;4.90;;;1.10;;
52072;SDS011;38074;51.232;6.826;2023-04-25T12:49:09;6.50;;;1.23;;
52072;SDS011;38074;51.232;6.826;2023-04-25T12:56:25;4.13;;;1.10;;
52072;SDS011;38074;51.232;6.826;2023-04-25T13:03:43;5.50;;;1.23;;
52072;SDS011;38074;51.232;6.826;2023-04-25T13:10:59;7.35;;;1.20;;
52072;SDS011;38074;51.232;6.826;2023-04-25T13:18:15;7.57;;;1.40;;
52072;SDS011;38074;51.232;6.826;2023-04-25T13:25:30;4.57;;;0.90;;
52072;SDS011;38074;51.232;6.826;2023-04-25T13:32:46;9.33;;;1.33;;
52072;SDS011;38074;51.232;6.826;2023-04-25T13:40:02;8.60;;;1.77;;
52072;SDS011;38074;51.232;6.826;2023-04-25T13:47:19;8.82;;;1.20;;
52072;SDS011;38074;51.232;6.826;2023-04-25T13:54:35;4.93;;;1.03;;
52072;SDS011;38074;51.232;6.826;2023-04-25T14:01:51;3.50;;;0.70;;
52072;SDS011;38074;51.232;6.826;2023-04-25T14:09:06;4.07;;;0.90;;
52072;SDS011;38074;51.232;6.826;2023-04-25T14:16:25;1.75;;;0.70;;
52072;SDS011;38074;51.232;6.826;2023-04-25T14:23:40;3.15;;;0.75;;
52072;SDS011;38074;51.232;6.826;2023-04-25T14:30:56;1.98;;;0.57;;
52072;SDS011;38074;51.232;6.826;2023-04-25T14:38:11;2.43;;;0.60;;
52072;SDS011;38074;51.232;6.826;2023-04-25T14:45:27;2.30;;;0.87;;
52072;SDS011;38074;51.232;6.826;2023-04-25T14:52:43;1.35;;;0.45;;
52072;SDS011;38074;51.232;6.826;2023-04-25T15:00:00;3.50;;;0.45;;
52072;SDS011;38074;51.232;6.826;2023-04-25T15:07:16;2.28;;;0.40;;
52072;SDS011;38074;51.232;6.826;2023-04-25T15:14:32;3.55;;;0.40;;
52072;SDS011;38074;51.232;6.826;2023-04-25T15:21:48;5.53;;;0.80;;
52072;SDS011;38074;51.232;6.826;2023-04-25T15:29:04;7.95;;;0.57;;
52072;SDS011;38074;51.232;6.826;2023-04-25T15:36:20;7.05;;;0.90;;
52072;SDS011;38074;51.232;6.826;2023-04-25T15:43:36;3.38;;;0.60;;
52072;SDS011;38074;51.232;6.826;2023-04-25T15:50:52;1.50;;;0.30;;
52072;SDS011;38074;51.232;6.826;2023-04-25T15:58:08;3.17;;;0.40;;
52072;SDS011;38074;51.232;6.826;2023-04-25T16:05:23;3.87;;;0.50;;
52072;SDS011;38074;51.232;6.826;2023-04-25T16:12:39;5.03;;;0.60;;
52072;SDS011;38074;51.232;6.826;2023-04-25T16:19:55;4.15;;;0.65;;
52072;SDS011;38074;51.232;6.826;2023-04-25T16:27:10;2.55;;;0.57;;
52072;SDS011;38074;51.232;6.826;2023-04-25T16:34:26;6.80;;;1.10;;
52072;SDS011;38074;51.232;6.826;2023-04-25T16:41:42;1.37;;;0.50;;
52072;SDS011;38074;51.232;6.826;2023-04-25T16:48:57;4.10;;;0.37;;
52072;SDS011;38074;51.232;6.826;2023-04-25T16:56:13;3.13;;;0.60;;
52072;SDS011;38074;51.232;6.826;2023-04-25T17:03:28;1.80;;;0.30;;
52072;SDS011;38074;51.232;6.826;2023-04-25T17:10:44;2.42;;;0.60;;
52072;SDS011;38074;51.232;6.826;2023-04-25T17:17:59;4.57;;;0.60;;
52072;SDS011;38074;51.232;6.826;2023-04-25T17:25:15;3.23;;;0.57;;
52072;SDS011;38074;51.232;6.826;2023-04-25T17:32:30;4.13;;;0.90;;
52072;SDS011;38074;51.232;6.826;2023-04-25T17:39:46;2.97;;;0.60;;
52072;SDS011;38074;51.232;6.826;2023-04-25T17:47:01;3.10;;;1.13;;
52072;SDS011;38074;51.232;6.826;2023-04-25T17:54:17;1.15;;;0.40;;
52072;SDS011;38074;51.232;6.826;2023-04-25T18:01:36;2.42;;;0.63;;
52072;SDS011;38074;51.232;6.826;2023-04-25T18:08:51;4.57;;;0.50;;
52072;SDS011;38074;51.232;6.826;2023-04-25T18:16:07;3.70;;;0.60;;
52072;SDS011;38074;51.232;6.826;2023-04-25T18:23:23;4.55;;;0.65;;
52072;SDS011;38074;51.232;6.826;2023-04-25T18:30:38;7.77;;;1.03;;
52072;SDS011;38074;51.232;6.826;2023-04-25T18:37:54;6.20;;;1.10;;
52072;SDS011;38074;51.232;6.826;2023-04-25T18:45:09;8.03;;;0.70;;
52072;SDS011;38074;51.232;6.826;2023-04-25T18:52:25;6.67;;;1.17;;
52072;SDS011;38074;51.232;6.826;2023-04-25T18:59:42;3.10;;;0.53;;
52072;SDS011;38074;51.232;6.826;2023-04-25T19:07:00;10.50;;;1.00;;
52072;SDS011;38074;51.232;6.826;2023-04-25T19:14:19;8.07;;;1.25;;
52072;SDS011;38074;51.232;6.826;2023-04-25T19:21:35;6.22;;;0.85;;
52072;SDS011;38074;51.232;6.826;2023-04-25T19:29:04;8.77;;;0.93;;
52072;SDS011;38074;51.232;6.826;2023-04-25T19:36:23;5.68;;;0.80;;
52072;SDS011;38074;51.232;6.826;2023-04-25T19:43:39;6.13;;;1.05;;
52072;SDS011;38074;51.232;6.826;2023-04-25T19:50:54;3.17;;;1.00;;
52072;SDS011;38074;51.232;6.826;2023-04-25T19:58:10;6.90;;;0.80;;
52072;SDS011;38074;51.232;6.826;2023-04-25T20:05:25;6.37;;;0.77;;
52072;SDS011;38074;51.232;6.826;2023-04-25T20:12:41;4.30;;;0.90;;
52072;SDS011;38074;51.232;6.826;2023-04-25T20:19:58;4.97;;;0.77;;
52072;SDS011;38074;51.232;6.826;2023-04-25T20:27:13;3.13;;;0.57;;
52072;SDS011;38074;51.232;6.826;2023-04-25T20:34:29;2.23;;;0.80;;
52072;SDS011;38074;51.232;6.826;2023-04-25T20:41:45;5.87;;;1.07;;
52072;SDS011;38074;51.232;6.826;2023-04-25T20:49:01;2.53;;;0.68;;
52072;SDS011;38074;51.232;6.826;2023-04-25T20:56:19;3.90;;;0.57;;
52072;SDS011;38074;51.232;6.826;2023-04-25T21:03:34;4.03;;;0.70;;
52072;SDS011;38074;51.232;6.826;2023-04-25T21:10:51;1.23;;;0.43;;
52072;SDS011;38074;51.232;6.826;2023-04-25T21:18:07;1.47;;;0.47;;
52072;SDS011;38074;51.232;6.826;2023-04-25T21:25:23;2.83;;;0.80;;
52072;SDS011;38074;51.232;6.826;2023-04-25T21:32:44;1.92;;;0.43;;
52072;SDS011;38074;51.232;6.826;2023-04-25T21:40:00;2.93;;;0.87;;
52072;SDS011;38074;51.232;6.826;2023-04-25T21:47:15;2.58;;;0.47;;
52072;SDS011;38074;51.232;6.826;2023-04-25T21:54:31;0.98;;;0.38;;
52072;SDS011;38074;51.232;6.826;2023-04-25T22:01:48;0.73;;;0.30;;
52072;SDS011;38074;51.232;6.826;2023-04-25T22:09:03;1.88;;;0.50;;
52072;SDS011;38074;51.232;6.826;2023-04-25T22:16:19;0.80;;;0.20;;
52072;SDS011;38074;51.232;6.826;2023-04-25T22:23:34;1.67;;;0.33;;
52072;SDS011;38074;51.232;6.826;2023-04-25T22:30:51;0.63;;;0.20;;
52072;SDS011;38074;51.232;6.826;2023-04-25T22:38:06;1.17;;;0.40;;
52072;SDS011;38074;51.232;6.826;2023-04-25T22:45:22;2.05;;;0.40;;
52072;SDS011;38074;51.232;6.826;2023-04-25T22:52:38;2.00;;;0.43;;
52072;SDS011;38074;51.232;6.826;2023-04-25T22:59:53;1.27;;;0.30;;
52072;SDS011;38074;51.232;6.826;2023-04-25T23:07:10;1.23;;;0.50;;
52072;SDS011;38074;51.232;6.826;2023-04-25T23:14:27;1.08;;;0.50;;
52072;SDS011;38074;51.232;6.826;2023-04-25T23:21:43;1.02;;;0.30;;
52072;SDS011;38074;51.232;6.826;2023-04-25T23:28:58;1.27;;;0.20;;
52072;SDS011;38074;51.232;6.826;2023-04-25T23:36:17;1.10;;;0.23;;
52072;SDS011;38074;51.232;6.826;2023-04-25T23:43:35;1.38;;;0.43;;
52072;SDS011;38074;51.232;6.826;2023-04-25T23:50:50;0.52;;;0.20;;
52072;SDS011;38074;51.232;6.826;2023-04-25T23:58:06;1.23;;;0.30;;
